Time;durP1;ratioP1;P1;durP2;ratioP2;P2;SDS_P1;SDS_P2;PMS_P1;PMS_P2;Temp;Humidity;BMP_temperature;BMP_pressure;BME280_temperature;BME280_humidity;BME280_pressure;Samples;Min_cycle;Max_cycle;Signal;HPM_P1;HPM_P2
2022/08/13 00:01:23;;;;;;;3.35;2.15;;;18.90;78.20;;;;;;5091268;28;20036;-45
2022/08/13 00:03:52;;;;;;;2.40;2.20;;;18.80;78.50;;;;;;5086406;28;20043;-44
2022/08/13 00:09:02;;;;;;;3.90;2.60;;;18.60;79.10;;;;;;5094735;28;20020;-44
2022/08/13 00:14:11;;;;;;;3.40;2.72;;;18.50;80.50;;;;;;5094559;28;20498;-45
2022/08/13 00:16:37;;;;;;;2.72;2.50;;;18.50;80.30;;;;;;5094611;28;20036;-44
2022/08/13 00:19:03;;;;;;;3.20;2.88;;;18.40;80.70;;;;;;5094896;28;20433;-44
2022/08/13 00:21:29;;;;;;;2.80;2.60;;;18.40;80.80;;;;;;5086791;28;20102;-44
2022/08/13 00:23:55;;;;;;;3.05;2.75;;;18.30;81.20;;;;;;5087903;28;20238;-45
2022/08/13 00:26:22;;;;;;;3.65;2.88;;;18.30;81.50;;;;;;5090609;28;20028;-43
2022/08/13 00:28:53;;;;;;;3.28;2.78;;;18.30;81.10;;;;;;5091813;28;20111;-46
2022/08/13 00:31:19;;;;;;;6.20;2.72;;;18.30;81.80;;;;;;5090757;28;20181;-46
2022/08/13 00:33:44;;;;;;;3.17;2.50;;;18.30;81.70;;;;;;5091456;28;20024;-45
2022/08/13 00:36:11;;;;;;;3.92;2.72;;;18.30;82.00;;;;;;5090911;28;20055;-46
2022/08/13 00:38:36;;;;;;;3.17;2.80;;;18.30;81.80;;;;;;5091229;28;20289;-44
2022/08/13 00:41:03;;;;;;;5.35;2.97;;;18.30;81.50;;;;;;5090626;28;20056;-46
2022/08/13 00:43:32;;;;;;;6.63;3.33;;;18.40;80.90;;;;;;5091198;28;20027;-45
2022/08/13 00:45:58;;;;;;;3.40;3.10;;;18.40;80.40;;;;;;5091513;28;20028;-44
2022/08/13 00:48:43;;;;;;;7.38;3.17;;;18.50;80.50;;;;;;5091072;28;20035;-45
2022/08/13 00:51:10;;;;;;;3.15;2.80;;;18.50;79.90;;;;;;5086745;28;20079;-45
2022/08/13 00:53:37;;;;;;;4.38;2.97;;;18.50;80.30;;;;;;5074740;28;20059;-45
2022/08/13 00:56:04;;;;;;;3.78;2.95;;;18.50;80.40;;;;;;5091037;28;20030;-44
2022/08/13 00:58:34;;;;;;;4.07;2.88;;;18.50;80.30;;;;;;5089630;28;20055;-46
2022/08/13 01:01:01;;;;;;;3.42;2.80;;;18.50;80.50;;;;;;5090346;28;20518;-45
2022/08/13 01:03:31;;;;;;;4.70;3.30;;;18.50;80.20;;;;;;5090632;28;20494;-46
2022/08/13 01:05:59;;;;;;;5.45;3.05;;;18.50;80.10;;;;;;5090828;28;20103;-45
2022/08/13 01:08:26;;;;;;;3.70;2.90;;;18.40;80.50;;;;;;5090727;28;20077;-47
2022/08/13 01:10:56;;;;;;;3.22;2.92;;;18.40;80.60;;;;;;5089994;28;20028;-44
2022/08/13 01:13:26;;;;;;;4.43;2.97;;;18.30;80.70;;;;;;5090677;28;20016;-46
2022/08/13 01:15:52;;;;;;;2.85;2.42;;;18.30;80.90;;;;;;5090357;28;20464;-48
2022/08/13 01:18:22;;;;;;;4.50;3.05;;;18.30;80.40;;;;;;5090570;28;20024;-45
2022/08/13 01:20:50;;;;;;;4.53;2.65;;;18.30;80.50;;;;;;5082814;28;20052;-45
2022/08/13 01:23:17;;;;;;;2.92;2.67;;;18.30;81.10;;;;;;5081954;28;20077;-46
2022/08/13 01:25:44;;;;;;;4.13;3.17;;;18.20;81.00;;;;;;5089098;28;20056;-45
2022/08/13 01:28:11;;;;;;;2.60;2.40;;;18.20;81.40;;;;;;5090161;28;20107;-44
2022/08/13 01:30:39;;;;;;;3.65;2.97;;;18.20;81.70;;;;;;5089682;28;20080;-45
2022/08/13 01:33:08;;;;;;;4.60;3.42;;;18.20;81.00;;;;;;5081722;28;20082;-44
2022/08/13 01:35:33;;;;;;;3.53;2.50;;;18.10;81.30;;;;;;5081611;28;20067;-45
2022/08/13 01:38:00;;;;;;;4.18;2.95;;;18.10;81.60;;;;;;5089288;28;20047;-43
2022/08/13 01:40:25;;;;;;;3.85;2.45;;;18.10;81.30;;;;;;5090219;28;20021;-44
2022/08/13 01:42:53;;;;;;;2.90;2.50;;;18.10;81.60;;;;;;5088202;28;20050;-46
2022/08/13 01:45:19;;;;;;;8.25;3.22;;;18.10;81.90;;;;;;5090089;28;20024;-45
2022/08/13 01:50:30;;;;;;;4.88;3.17;;;18.00;82.50;;;;;;5089712;28;20085;-44
2022/08/13 01:53:07;;;;;;;3.38;3.05;;;17.90;84.10;;;;;;5084333;28;20059;-44
2022/08/13 01:55:52;;;;;;;3.28;2.97;;;17.80;83.90;;;;;;5066373;28;20493;-45
2022/08/13 01:58:24;;;;;;;3.75;3.28;;;17.80;83.70;;;;;;5067894;28;20494;-46
2022/08/13 02:00:53;;;;;;;6.75;3.55;;;17.80;84.20;;;;;;5068736;28;20033;-44
2022/08/13 02:03:19;;;;;;;4.55;3.38;;;17.70;84.90;;;;;;5077427;28;20382;-45
2022/08/13 02:05:47;;;;;;;3.80;2.90;;;17.70;84.90;;;;;;5078260;28;20052;-45
2022/08/13 02:08:15;;;;;;;2.92;2.72;;;17.70;84.90;;;;;;5068833;28;20020;-44
2022/08/13 02:10:43;;;;;;;8.40;2.90;;;17.70;84.50;;;;;;5068396;28;20400;-46
2022/08/13 02:13:11;;;;;;;6.82;3.10;;;17.60;85.20;;;;;;5069205;28;20399;-44
2022/08/13 02:15:38;;;;;;;4.85;2.60;;;17.60;86.10;;;;;;5069270;28;20551;-44
2022/08/13 02:18:04;;;;;;;3.53;2.85;;;17.50;86.10;;;;;;5069048;28;20454;-44
2022/08/13 02:20:34;;;;;;;3.72;2.72;;;17.40;86.80;;;;;;5067157;28;20021;-44
2022/08/13 02:23:01;;;;;;;3.78;3.38;;;17.40;87.40;;;;;;5080962;28;20081;-44
2022/08/13 02:25:28;;;;;;;5.82;2.70;;;17.40;88.30;;;;;;5089231;28;20032;-43
2022/08/13 02:27:55;;;;;;;3.30;3.00;;;17.30;88.70;;;;;;5089307;28;20513;-46
2022/08/13 02:30:22;;;;;;;2.83;2.53;;;17.30;88.90;;;;;;5088099;28;20114;-45
2022/08/13 02:32:49;;;;;;;8.60;2.83;;;17.30;89.10;;;;;;5087297;28;20527;-45
2022/08/13 02:35:17;;;;;;;3.92;3.25;;;17.20;90.10;;;;;;5085679;28;20024;-45
2022/08/13 02:37:43;;;;;;;5.10;3.20;;;17.20;90.40;;;;;;5082028;28;20073;-46
2022/08/13 02:41:38;;;;;;;3.83;3.42;;;17.20;90.40;;;;;;5089242;28;20103;-44
2022/08/13 02:42:55;;;;;;;3.15;2.72;;;17.10;90.80;;;;;;5088703;28;20415;-44
2022/08/13 02:45:22;;;;;;;5.15;2.90;;;17.10;90.80;;;;;;5088853;28;20024;-44
2022/08/13 02:47:48;;;;;;;2.58;2.38;;;17.10;91.30;;;;;;5088864;28;20028;-44
2022/08/13 02:50:14;;;;;;;4.20;3.10;;;17.10;91.30;;;;;;5088402;28;20035;-45
2022/08/13 02:52:40;;;;;;;4.88;2.88;;;17.10;91.70;;;;;;5088160;28;20020;-45
2022/08/13 02:55:07;;;;;;;3.47;2.63;;;17.00;92.00;;;;;;5088903;28;20026;-45
2022/08/13 02:57:34;;;;;;;3.40;3.10;;;17.00;92.40;;;;;;5087738;28;20024;-47
2022/08/13 02:59:59;;;;;;;4.65;3.38;;;17.00;92.30;;;;;;5088947;28;20047;-45
2022/08/13 03:02:26;;;;;;;3.35;2.60;;;17.00;92.70;;;;;;5088184;28;20323;-44
2022/08/13 03:04:51;;;;;;;4.00;2.80;;;17.00;92.90;;;;;;5088485;28;20052;-45
2022/08/13 03:07:18;;;;;;;3.30;3.00;;;17.00;93.50;;;;;;5079026;28;20066;-44
2022/08/13 03:09:44;;;;;;;3.95;2.97;;;16.90;93.80;;;;;;5088636;28;20203;-44
2022/08/13 03:12:12;;;;;;;3.15;2.92;;;16.90;93.90;;;;;;5087854;28;20074;-47
2022/08/13 03:14:39;;;;;;;4.10;2.95;;;16.90;93.80;;;;;;5088387;28;20024;-45
2022/08/13 03:17:04;;;;;;;7.55;2.78;;;16.90;94.10;;;;;;5087247;28;20028;-44
2022/08/13 03:19:30;;;;;;;3.25;2.85;;;16.90;94.20;;;;;;5088500;28;20475;-44
2022/08/13 03:21:56;;;;;;;4.88;2.83;;;16.90;94.70;;;;;;5084807;28;20028;-44
2022/08/13 03:24:21;;;;;;;3.88;3.47;;;16.90;94.70;;;;;;5080261;28;20344;-44
2022/08/13 03:26:48;;;;;;;3.50;3.17;;;16.90;95.20;;;;;;5088493;28;20110;-45
2022/08/13 03:29:14;;;;;;;3.65;3.33;;;16.90;95.00;;;;;;5087102;28;20495;-44
2022/08/13 03:31:40;;;;;;;4.00;3.42;;;16.90;95.30;;;;;;5087842;28;20082;-44
2022/08/13 03:34:06;;;;;;;4.68;3.30;;;16.90;96.00;;;;;;5088370;28;20028;-47
2022/08/13 03:36:33;;;;;;;3.60;3.30;;;16.80;96.20;;;;;;5088186;28;20438;-45
2022/08/13 03:38:59;;;;;;;3.85;3.00;;;16.80;96.30;;;;;;5088379;28;20387;-46
2022/08/13 03:41:26;;;;;;;3.58;3.20;;;16.80;96.30;;;;;;5087785;28;20016;-44
2022/08/13 03:43:53;;;;;;;6.53;3.95;;;16.70;96.80;;;;;;5088320;28;20433;-44
2022/08/13 03:46:21;;;;;;;5.70;3.25;;;16.70;97.00;;;;;;5088542;28;20032;-45
2022/08/13 03:48:48;;;;;;;4.55;3.08;;;16.80;96.60;;;;;;5086966;28;20180;-46
2022/08/13 03:51:16;;;;;;;6.10;3.47;;;16.80;96.20;;;;;;5086017;28;20028;-45
2022/08/13 03:53:43;;;;;;;5.43;3.33;;;16.80;96.20;;;;;;5079386;28;20103;-46
2022/08/13 03:56:09;;;;;;;4.97;3.58;;;16.80;96.10;;;;;;5088097;28;20032;-44
2022/08/13 03:58:37;;;;;;;8.68;3.70;;;16.80;96.10;;;;;;5088187;28;20024;-48
2022/08/13 04:01:04;;;;;;;4.85;3.47;;;16.70;96.50;;;;;;5088828;28;20024;-45
2022/08/13 04:03:36;;;;;;;3.63;2.95;;;16.70;96.60;;;;;;5092069;28;20028;-45
2022/08/13 04:06:06;;;;;;;5.32;3.65;;;16.70;97.00;;;;;;5092010;28;20060;-45
2022/08/13 04:08:36;;;;;;;4.03;3.47;;;16.60;97.30;;;;;;5091683;28;20503;-47
2022/08/13 04:11:03;;;;;;;4.03;3.63;;;16.60;97.50;;;;;;5091403;28;20059;-44
2022/08/13 04:13:36;;;;;;;6.05;3.97;;;16.60;97.60;;;;;;5092012;28;20258;-46
2022/08/13 04:16:22;;;;;;;4.05;3.20;;;16.50;98.10;;;;;;5091860;28;20020;-45
2022/08/13 04:18:49;;;;;;;4.00;3.60;;;16.50;98.30;;;;;;5091554;28;20055;-45
2022/08/13 04:21:16;;;;;;;4.57;3.90;;;16.50;97.70;;;;;;5081751;28;20052;-45
2022/08/13 04:23:43;;;;;;;4.68;3.83;;;16.60;97.40;;;;;;5083057;28;20035;-46
2022/08/13 04:26:15;;;;;;;5.28;4.07;;;16.60;97.30;;;;;;5080072;28;20062;-45
2022/08/13 04:28:42;;;;;;;5.80;4.20;;;16.50;97.80;;;;;;5071060;28;20028;-43
2022/08/13 04:31:12;;;;;;;8.65;4.72;;;16.60;97.80;;;;;;5070164;28;20020;-44
2022/08/13 04:33:38;;;;;;;5.78;4.13;;;16.50;97.70;;;;;;5070548;28;20032;-44
2022/08/13 04:36:05;;;;;;;5.22;3.88;;;16.50;97.80;;;;;;5070341;28;20020;-47
2022/08/13 04:38:31;;;;;;;4.43;3.72;;;16.60;97.70;;;;;;5070609;28;20020;-45
2022/08/13 04:40:57;;;;;;;4.53;3.42;;;16.60;97.80;;;;;;5070189;28;20021;-45
2022/08/13 04:43:22;;;;;;;5.07;3.35;;;16.60;97.40;;;;;;5071970;28;20025;-46
2022/08/13 04:45:48;;;;;;;3.65;3.30;;;16.70;97.50;;;;;;5072669;28;20029;-44
2022/08/13 04:48:15;;;;;;;3.75;3.45;;;16.70;97.20;;;;;;5070440;28;20056;-45
2022/08/13 04:50:44;;;;;;;4.63;3.35;;;16.80;97.20;;;;;;5068136;28;20025;-45
2022/08/13 04:53:27;;;;;;;6.40;3.40;;;16.80;97.80;;;;;;5072893;28;20020;-45
2022/08/13 04:55:53;;;;;;;3.90;3.50;;;16.80;98.00;;;;;;5068514;28;20024;-47
2022/08/13 04:58:19;;;;;;;4.18;3.47;;;16.90;97.20;;;;;;5070359;28;20542;-46
2022/08/13 05:00:45;;;;;;;3.50;3.20;;;16.90;96.80;;;;;;5069507;28;20028;-44
2022/08/13 05:03:15;;;;;;;4.70;3.25;;;17.00;97.40;;;;;;5068918;28;20024;-44
2022/08/13 05:05:44;;;;;;;4.57;3.50;;;17.00;97.80;;;;;;5069957;28;20519;-46
2022/08/13 05:08:11;;;;;;;3.78;3.33;;;17.00;97.00;;;;;;5070305;28;20036;-45
2022/08/13 05:10:40;;;;;;;5.80;4.20;;;17.10;96.10;;;;;;5069833;28;20104;-46
2022/08/13 05:13:25;;;;;;;4.82;3.83;;;17.10;96.60;;;;;;5065537;28;20523;-47
2022/08/13 05:15:54;;;;;;;3.50;3.20;;;17.20;96.20;;;;;;5067971;28;20030;-47
2022/08/13 05:18:20;;;;;;;3.75;3.45;;;17.20;96.40;;;;;;5068700;28;20024;-46
2022/08/13 05:20:46;;;;;;;5.22;3.95;;;17.20;96.00;;;;;;5058986;28;20446;-46
2022/08/13 05:23:13;;;;;;;6.07;3.83;;;17.30;95.50;;;;;;5073393;28;20043;-43
2022/08/13 05:25:40;;;;;;;6.25;3.13;;;17.30;95.50;;;;;;5078724;28;20043;-44
2022/08/13 05:28:08;;;;;;;3.47;3.17;;;17.40;95.70;;;;;;5065941;28;20429;-46
2022/08/13 05:30:37;;;;;;;6.45;3.65;;;17.40;95.60;;;;;;5065470;28;20359;-44
2022/08/13 05:33:14;;;;;;;4.22;3.90;;;17.40;96.30;;;;;;5058431;28;20026;-45
2022/08/13 05:35:42;;;;;;;4.60;3.47;;;17.50;95.80;;;;;;5082080;28;20017;-45
2022/08/13 05:38:08;;;;;;;6.80;3.25;;;17.50;96.10;;;;;;5090118;28;20138;-45
2022/08/13 05:40:35;;;;;;;5.15;3.75;;;17.60;95.90;;;;;;5074208;28;20112;-45
2022/08/13 05:43:02;;;;;;;6.45;3.60;;;17.60;96.10;;;;;;5058597;28;20021;-45
2022/08/13 05:45:28;;;;;;;8.02;3.90;;;17.70;95.70;;;;;;5068516;28;20085;-46
2022/08/13 05:47:53;;;;;;;4.88;3.58;;;17.80;95.70;;;;;;5069979;28;20040;-46
2022/08/13 05:50:19;;;;;;;4.93;3.65;;;17.80;95.80;;;;;;5069602;28;20028;-45
2022/08/13 05:52:45;;;;;;;4.00;3.47;;;17.90;95.20;;;;;;5068334;28;20050;-45
2022/08/13 05:55:12;;;;;;;6.00;3.47;;;17.90;95.10;;;;;;5069420;28;20021;-45
2022/08/13 05:57:39;;;;;;;7.70;3.88;;;18.00;95.10;;;;;;5069342;28;20012;-44
2022/08/13 06:05:38;;;;;;;5.60;3.40;;;18.20;93.70;;;;;;5057734;28;20116;-45
2022/08/13 06:08:05;;;;;;;6.18;4.50;;;18.30;93.60;;;;;;5068942;28;20025;-48
2022/08/13 06:10:32;;;;;;;4.78;3.72;;;18.40;93.60;;;;;;5068573;28;20075;-46
2022/08/13 06:12:58;;;;;;;4.50;3.63;;;18.50;93.40;;;;;;5068537;28;20391;-46
2022/08/13 06:15:25;;;;;;;5.38;4.15;;;18.50;93.40;;;;;;5068478;28;20016;-46
2022/08/13 06:17:52;;;;;;;5.78;3.97;;;18.60;92.70;;;;;;5067906;28;20033;-45
2022/08/13 06:20:22;;;;;;;4.47;3.88;;;18.70;93.20;;;;;;5068223;28;20483;-44
2022/08/13 06:22:52;;;;;;;4.50;3.95;;;18.70;92.90;;;;;;5069642;28;20110;-44
2022/08/13 06:25:18;;;;;;;6.22;3.78;;;18.80;93.20;;;;;;5068548;28;20473;-44
2022/08/13 06:27:43;;;;;;;8.45;4.35;;;18.90;93.30;;;;;;5069946;28;20181;-45
2022/08/13 06:30:10;;;;;;;4.30;3.47;;;18.90;92.90;;;;;;5077176;28;20073;-45
2022/08/13 06:32:37;;;;;;;7.72;4.00;;;19.00;92.80;;;;;;5074237;28;20037;-45
2022/08/13 06:35:04;;;;;;;5.53;3.80;;;19.10;92.70;;;;;;5069395;28;20408;-44
2022/08/13 06:37:50;;;;;;;4.90;3.65;;;19.20;92.50;;;;;;5069036;28;20534;-43
2022/08/13 06:40:19;;;;;;;7.60;3.60;;;19.30;92.50;;;;;;5069218;28;20572;-44
2022/08/13 06:43:05;;;;;;;7.78;3.55;;;19.50;92.10;;;;;;5061886;28;20047;-44
2022/08/13 06:45:32;;;;;;;7.97;4.05;;;19.60;91.80;;;;;;5065273;28;20040;-44
2022/08/13 06:47:59;;;;;;;6.38;4.35;;;19.70;91.60;;;;;;5067303;28;20545;-44
2022/08/13 06:50:25;;;;;;;5.78;3.30;;;19.80;91.40;;;;;;5066935;28;20372;-44
2022/08/13 06:52:50;;;;;;;4.60;4.20;;;19.90;91.30;;;;;;5070552;28;20013;-44
2022/08/13 06:55:17;;;;;;;7.85;4.32;;;20.00;91.30;;;;;;5070911;28;20503;-45
2022/08/13 06:57:46;;;;;;;8.27;3.90;;;20.10;91.10;;;;;;5068491;28;20400;-44
2022/08/13 07:00:11;;;;;;;5.68;3.65;;;20.30;91.00;;;;;;5068510;28;20017;-45
2022/08/13 07:02:40;;;;;;;4.43;3.75;;;20.30;90.60;;;;;;5067833;28;20039;-43
2022/08/13 07:05:06;;;;;;;6.25;3.72;;;20.50;90.60;;;;;;5068585;28;20048;-46
2022/08/13 07:07:33;;;;;;;5.68;4.20;;;20.60;90.90;;;;;;5068330;28;20089;-44
2022/08/13 07:09:59;;;;;;;5.40;4.10;;;20.60;90.50;;;;;;5067051;28;20025;-44
2022/08/13 07:12:25;;;;;;;6.03;4.30;;;20.70;90.50;;;;;;5067667;28;20056;-45
2022/08/13 07:14:51;;;;;;;6.30;3.75;;;20.80;90.50;;;;;;5068467;28;20040;-45
2022/08/13 07:17:17;;;;;;;6.80;3.95;;;20.80;90.70;;;;;;5068277;28;20028;-45
2022/08/13 07:19:42;;;;;;;7.20;4.35;;;20.90;90.30;;;;;;5067933;28;20044;-45
2022/08/13 07:22:08;;;;;;;4.30;3.67;;;21.00;90.20;;;;;;5054232;28;20032;-44
2022/08/13 07:24:33;;;;;;;5.75;4.22;;;21.10;89.70;;;;;;5061726;28;20035;-45
2022/08/13 07:27:04;;;;;;;5.70;4.45;;;21.30;89.40;;;;;;5065917;28;20021;-45
2022/08/13 07:29:32;;;;;;;10.27;4.18;;;21.30;89.10;;;;;;5063556;28;20021;-46
2022/08/13 07:32:01;;;;;;;5.78;4.28;;;21.50;88.70;;;;;;5065960;28;20024;-45
2022/08/13 07:34:28;;;;;;;6.82;3.78;;;21.60;88.50;;;;;;5064545;28;20017;-46
2022/08/13 07:36:55;;;;;;;4.55;3.80;;;21.70;88.60;;;;;;5069577;28;20020;-44
2022/08/13 07:39:22;;;;;;;6.75;3.92;;;21.90;88.40;;;;;;5070995;28;20577;-44
2022/08/13 07:41:48;;;;;;;4.80;4.28;;;22.00;88.00;;;;;;5066625;28;20077;-45
2022/08/13 07:44:22;;;;;;;6.55;4.10;;;22.10;87.80;;;;;;5071124;28;20465;-46
2022/08/13 07:46:50;;;;;;;6.30;3.92;;;22.30;87.30;;;;;;5068375;28;20024;-44
2022/08/13 07:49:16;;;;;;;5.90;3.90;;;22.40;86.10;;;;;;5071518;28;20009;-44
2022/08/13 07:51:42;;;;;;;3.72;3.40;;;22.60;86.00;;;;;;5072948;28;20032;-45
2022/08/13 07:54:10;;;;;;;4.95;4.05;;;22.80;85.50;;;;;;5083145;28;20128;-45
2022/08/13 07:56:36;;;;;;;6.30;4.75;;;23.10;84.90;;;;;;5091569;28;20024;-45
2022/08/13 07:59:04;;;;;;;5.47;3.80;;;23.30;84.00;;;;;;5091474;28;20020;-46
2022/08/13 08:01:31;;;;;;;9.98;4.43;;;23.50;82.90;;;;;;5089588;28;20035;-45
2022/08/13 08:03:59;;;;;;;5.45;4.03;;;23.80;82.50;;;;;;5090178;28;20052;-45
2022/08/13 08:06:25;;;;;;;8.73;4.35;;;24.00;81.20;;;;;;5089685;28;20506;-46
2022/08/13 08:08:54;;;;;;;8.15;4.03;;;24.20;80.70;;;;;;5089398;28;20036;-45
2022/08/13 08:14:09;;;;;;;6.93;3.55;;;24.70;78.50;;;;;;5089737;28;20109;-47
2022/08/13 08:16:37;;;;;;;5.65;3.80;;;25.10;78.10;;;;;;5089769;28;20024;-48
2022/08/13 08:19:05;;;;;;;6.88;4.47;;;25.40;77.10;;;;;;5091160;28;20117;-48
2022/08/13 08:21:32;;;;;;;11.00;5.07;;;26.00;75.20;;;;;;5081326;28;20047;-46
2022/08/13 08:24:01;;;;;;;8.40;4.13;;;26.70;74.30;;;;;;5056618;28;20027;-46
2022/08/13 08:26:29;;;;;;;8.27;4.07;;;27.70;71.50;;;;;;5048995;28;20127;-46
2022/08/13 08:28:56;;;;;;;5.90;3.55;;;29.10;68.10;;;;;;5050717;28;20027;-46
2022/08/13 08:31:23;;;;;;;3.88;3.08;;;30.30;64.10;;;;;;5049758;28;20372;-45
2022/08/13 08:33:50;;;;;;;7.88;3.30;;;31.60;61.50;;;;;;5050016;28;20392;-46
2022/08/13 08:36:16;;;;;;;5.80;3.00;;;32.70;58.10;;;;;;5050020;28;20097;-47
2022/08/13 08:44:24;;;;;;;7.07;3.20;;;34.90;51.40;;;;;;5070826;28;20071;-48
2022/08/13 08:46:53;;;;;;;6.35;2.85;;;35.70;50.20;;;;;;5070047;28;20036;-46
2022/08/13 08:49:21;;;;;;;8.30;2.58;;;36.20;50.00;;;;;;5068995;28;20032;-46
2022/08/13 08:51:49;;;;;;;4.40;2.13;;;37.20;48.30;;;;;;5074685;28;20054;-46
2022/08/13 08:54:14;;;;;;;4.22;2.42;;;37.60;47.40;;;;;;5075608;28;20032;-48
2022/08/13 08:56:41;;;;;;;4.43;2.63;;;37.90;46.20;;;;;;5070148;28;20496;-47
2022/08/13 08:59:09;;;;;;;4.60;2.53;;;38.50;45.40;;;;;;5068684;28;20024;-46
2022/08/13 09:01:35;;;;;;;5.50;2.50;;;39.10;44.90;;;;;;5069862;28;20046;-46
2022/08/13 09:04:05;;;;;;;4.30;1.90;;;39.70;43.40;;;;;;5069671;28;20270;-48
2022/08/13 09:06:31;;;;;;;3.45;2.25;;;39.70;43.50;;;;;;5068279;28;20024;-47
2022/08/13 09:08:59;;;;;;;4.35;2.47;;;40.20;42.90;;;;;;5069996;28;20434;-49
2022/08/13 09:11:28;;;;;;;4.80;2.55;;;39.90;42.00;;;;;;5068681;28;20016;-47
2022/08/13 09:13:55;;;;;;;5.00;2.55;;;39.50;42.40;;;;;;5068126;28;20038;-46
2022/08/13 09:16:21;;;;;;;3.25;2.00;;;40.30;42.40;;;;;;5069747;28;20032;-48
2022/08/13 09:18:48;;;;;;;6.45;2.35;;;40.70;41.50;;;;;;5069395;28;20024;-46
2022/08/13 09:21:15;;;;;;;3.53;2.78;;;41.30;41.20;;;;;;5066430;28;20104;-47
2022/08/13 09:23:45;;;;;;;2.70;2.50;;;40.80;42.20;;;;;;5076249;28;20027;-48
2022/08/13 09:26:12;;;;;;;5.95;2.60;;;41.10;41.60;;;;;;5048126;28;20051;-46
2022/08/13 09:28:41;;;;;;;3.30;2.42;;;41.60;41.00;;;;;;5050186;28;20063;-47
2022/08/13 09:31:07;;;;;;;6.93;2.63;;;41.40;41.20;;;;;;5049452;28;20032;-46
2022/08/13 09:33:38;;;;;;;3.33;2.70;;;42.20;41.00;;;;;;5049844;28;20108;-47
2022/08/13 09:36:06;;;;;;;5.03;3.30;;;41.70;41.00;;;;;;5049895;28;20021;-47
2022/08/13 09:38:33;;;;;;;6.67;3.50;;;43.20;40.20;;;;;;5061375;28;20024;-46
2022/08/13 09:41:26;;;;;;;3.75;3.38;;;43.10;39.40;;;;;;5068683;28;20676;-46
2022/08/13 09:43:52;;;;;;;6.05;3.30;;;43.50;39.30;;;;;;5067156;28;20387;-49
2022/08/13 09:46:21;;;;;;;3.60;3.28;;;43.00;39.80;;;;;;5069451;28;20100;-46
2022/08/13 09:48:51;;;;;;;5.45;3.70;;;43.20;39.10;;;;;;5069326;28;20029;-46
2022/08/13 09:51:17;;;;;;;5.28;3.10;;;43.60;38.70;;;;;;5068652;28;20112;-46
2022/08/13 09:53:46;;;;;;;6.05;3.60;;;43.60;38.60;;;;;;5074353;28;20024;-46
2022/08/13 09:56:17;;;;;;;5.65;3.30;;;43.90;37.90;;;;;;5069085;28;20020;-47
2022/08/13 09:58:49;;;;;;;5.88;3.83;;;43.90;38.20;;;;;;5068573;28;20021;-47
2022/08/13 10:01:15;;;;;;;7.32;3.50;;;43.30;38.10;;;;;;5066157;28;20050;-46
2022/08/13 10:03:42;;;;;;;4.68;3.95;;;43.40;38.20;;;;;;5068909;28;20032;-49
2022/08/13 10:06:09;;;;;;;4.22;3.83;;;43.90;38.20;;;;;;5068929;28;20048;-49
2022/08/13 10:08:34;;;;;;;4.68;3.63;;;43.90;38.10;;;;;;5066295;28;20095;-49
2022/08/13 10:11:00;;;;;;;4.05;3.72;;;43.20;38.40;;;;;;5067050;28;20063;-46
2022/08/13 10:13:26;;;;;;;5.03;3.15;;;43.50;38.40;;;;;;5068032;28;20510;-47
2022/08/13 10:15:52;;;;;;;6.25;3.63;;;44.20;37.40;;;;;;5065001;28;20220;-47
2022/08/13 10:18:17;;;;;;;4.07;3.42;;;43.60;37.60;;;;;;5068182;28;20027;-47
2022/08/13 10:20:45;;;;;;;4.22;3.58;;;43.10;38.10;;;;;;5066138;28;20488;-49
2022/08/13 10:23:13;;;;;;;4.28;3.60;;;43.40;39.00;;;;;;5074548;28;20035;-46
2022/08/13 10:25:40;;;;;;;6.47;3.60;;;43.80;37.90;;;;;;5064185;28;20374;-47
2022/08/13 10:28:20;;;;;;;3.63;3.08;;;44.10;37.30;;;;;;5047599;28;20677;-48
2022/08/13 10:30:46;;;;;;;9.10;3.90;;;43.90;37.50;;;;;;5046930;28;20206;-47
2022/08/13 10:33:13;;;;;;;5.50;3.08;;;43.00;37.60;;;;;;5048976;28;20028;-45
2022/08/13 10:35:39;;;;;;;6.57;3.17;;;41.90;38.80;;;;;;5047603;28;20490;-46
2022/08/13 10:38:07;;;;;;;3.80;3.40;;;41.90;39.90;;;;;;5071938;28;20460;-46
2022/08/13 10:40:33;;;;;;;8.32;3.97;;;42.60;39.20;;;;;;5075343;28;20024;-47
2022/08/13 10:42:58;;;;;;;4.43;4.03;;;43.20;39.10;;;;;;5066805;28;20033;-46
2022/08/13 10:45:24;;;;;;;4.40;3.95;;;42.90;39.20;;;;;;5067403;28;20028;-45
2022/08/13 10:47:52;;;;;;;5.72;4.07;;;42.40;39.20;;;;;;5067351;28;20025;-45
2022/08/13 10:50:20;;;;;;;5.18;4.20;;;41.40;40.00;;;;;;5068601;28;20113;-45
2022/08/13 10:52:46;;;;;;;4.95;4.43;;;39.90;41.30;;;;;;5067531;28;20039;-46
2022/08/13 10:55:14;;;;;;;5.30;4.28;;;39.50;42.60;;;;;;5068265;28;20017;-45
2022/08/13 10:57:42;;;;;;;5.18;4.15;;;40.00;42.00;;;;;;5068593;28;20028;-46
2022/08/13 11:00:10;;;;;;;4.65;4.25;;;39.40;41.60;;;;;;5068428;28;20023;-46
2022/08/13 11:02:37;;;;;;;4.97;4.53;;;38.80;42.10;;;;;;5067853;28;20024;-45
2022/08/13 11:05:12;;;;;;;4.93;4.53;;;38.00;42.70;;;;;;5067990;28;20032;-45
2022/08/13 11:07:39;;;;;;;6.50;5.18;;;37.00;43.70;;;;;;5072653;28;20033;-46
2022/08/13 11:10:07;;;;;;;5.25;4.68;;;36.40;44.70;;;;;;5083994;28;20101;-45
2022/08/13 11:12:36;;;;;;;7.13;4.65;;;36.10;44.60;;;;;;5087771;28;20036;-45
2022/08/13 11:15:09;;;;;;;5.03;4.63;;;35.80;45.10;;;;;;5088650;28;20095;-47
2022/08/13 11:17:34;;;;;;;5.50;5.00;;;35.00;46.10;;;;;;5088604;28;20522;-46
2022/08/13 11:20:04;;;;;;;4.90;4.50;;;34.70;46.60;;;;;;5088690;28;20089;-45
2022/08/13 11:22:30;;;;;;;5.63;5.05;;;34.60;47.40;;;;;;5078260;28;20506;-46
2022/08/13 11:24:59;;;;;;;6.40;5.22;;;34.50;48.00;;;;;;5079010;28;20119;-45
2022/08/13 11:27:25;;;;;;;7.32;5.03;;;35.00;47.50;;;;;;5088585;28;20024;-46
2022/08/13 11:29:52;;;;;;;5.88;5.03;;;35.20;46.50;;;;;;5088529;28;20383;-45
2022/08/13 11:32:19;;;;;;;8.30;4.90;;;35.50;46.70;;;;;;5087585;28;20024;-46
2022/08/13 11:34:44;;;;;;;5.05;4.65;;;35.40;46.50;;;;;;5088623;28;20126;-44
2022/08/13 11:37:10;;;;;;;5.55;5.00;;;35.00;46.90;;;;;;5087954;28;20100;-45
2022/08/13 11:39:35;;;;;;;7.80;5.20;;;34.40;47.90;;;;;;5088381;28;20479;-45
2022/08/13 11:42:01;;;;;;;8.55;5.15;;;33.80;48.80;;;;;;5087755;28;20040;-44
2022/08/13 11:44:26;;;;;;;6.07;5.38;;;33.40;49.30;;;;;;5088296;28;20067;-45
2022/08/13 11:46:51;;;;;;;5.53;4.88;;;33.10;49.60;;;;;;5088267;28;20024;-46
2022/08/13 11:49:17;;;;;;;5.60;5.10;;;32.80;49.80;;;;;;5088124;28;20024;-45
2022/08/13 11:51:45;;;;;;;5.88;5.38;;;32.50;50.40;;;;;;5084194;28;20412;-46
2022/08/13 11:54:10;;;;;;;5.70;5.20;;;32.40;51.00;;;;;;5075877;28;20075;-44
2022/08/13 11:56:36;;;;;;;10.50;5.53;;;32.30;51.70;;;;;;5088285;28;20523;-46
2022/08/13 11:59:02;;;;;;;8.40;5.35;;;32.20;51.90;;;;;;5088218;28;20081;-45
2022/08/13 12:01:27;;;;;;;7.85;5.93;;;32.50;51.70;;;;;;5086103;28;20031;-45
2022/08/13 12:03:53;;;;;;;10.32;5.93;;;32.40;52.00;;;;;;5088064;28;20445;-44
2022/08/13 12:06:19;;;;;;;6.55;5.95;;;32.20;52.00;;;;;;5088110;28;20067;-47
2022/08/13 12:08:45;;;;;;;8.02;5.70;;;32.20;52.30;;;;;;5088006;28;20072;-45
2022/08/13 12:11:10;;;;;;;9.45;6.10;;;32.30;52.10;;;;;;5087393;28;20020;-44
2022/08/13 12:13:36;;;;;;;6.75;5.88;;;32.30;52.00;;;;;;5088393;28;20058;-45
2022/08/13 12:16:01;;;;;;;6.85;5.78;;;32.70;51.90;;;;;;5088031;28;20031;-45
2022/08/13 12:18:27;;;;;;;8.05;6.05;;;33.30;51.10;;;;;;5088092;28;20472;-46
2022/08/13 12:20:52;;;;;;;7.57;5.75;;;34.20;49.50;;;;;;5087395;28;20032;-44
2022/08/13 12:23:18;;;;;;;6.00;5.32;;;34.70;48.60;;;;;;5074271;28;20149;-44
2022/08/13 12:25:43;;;;;;;7.68;4.90;;;35.30;48.10;;;;;;5084278;28;20043;-46
2022/08/13 12:28:13;;;;;;;6.22;5.53;;;35.60;47.10;;;;;;5091584;28;20032;-48
2022/08/13 12:30:39;;;;;;;7.15;4.90;;;35.80;46.20;;;;;;5090961;28;20113;-46
2022/08/13 12:33:05;;;;;;;5.63;5.13;;;35.90;46.40;;;;;;5091400;28;20483;-45
2022/08/13 12:35:31;;;;;;;7.45;5.82;;;36.00;46.70;;;;;;5091724;28;20028;-45
2022/08/13 12:37:57;;;;;;;6.30;5.45;;;35.50;46.70;;;;;;5089985;28;20434;-45
2022/08/13 12:40:22;;;;;;;7.82;5.15;;;35.20;47.50;;;;;;5091629;28;20103;-45
2022/08/13 12:42:48;;;;;;;7.40;5.47;;;34.60;48.70;;;;;;5090915;28;20040;-47
2022/08/13 12:45:14;;;;;;;6.30;5.53;;;34.10;49.40;;;;;;5091257;28;20043;-45
2022/08/13 12:47:40;;;;;;;7.13;5.85;;;33.70;49.90;;;;;;5091296;28;20035;-46
2022/08/13 12:50:06;;;;;;;6.50;5.88;;;33.00;50.80;;;;;;5091608;28;20028;-45
2022/08/13 12:52:31;;;;;;;7.75;6.07;;;32.70;51.60;;;;;;5084707;28;20020;-47
2022/08/13 12:54:57;;;;;;;10.85;5.45;;;32.40;51.80;;;;;;5082768;28;20020;-44
2022/08/13 12:57:22;;;;;;;8.00;5.43;;;32.20;52.40;;;;;;5090933;28;20359;-46
2022/08/13 12:59:48;;;;;;;7.15;5.47;;;32.20;52.20;;;;;;5090946;28;20105;-47
2022/08/13 13:02:14;;;;;;;6.47;5.25;;;32.20;52.10;;;;;;5090198;28;20433;-46
2022/08/13 13:04:43;;;;;;;6.07;5.50;;;32.20;52.10;;;;;;5090936;28;20126;-45
2022/08/13 13:07:09;;;;;;;9.35;5.90;;;32.40;52.20;;;;;;5090707;28;20099;-46
2022/08/13 13:09:35;;;;;;;8.48;5.93;;;32.40;52.60;;;;;;5090843;28;20496;-48